Date,TemperatureHighF,TemperatureAvgF,TemperatureLowF,DewpointHighF,DewpointAvgF,DewpointLowF,HumidityHigh,HumidityAvg,HumidityLow,PressureMaxIn,PressureMinIn,WindSpeedMaxMPH,WindSpeedAvgMPH,GustSpeedMaxMPH,PrecipitationSumIn
2013-3-1,63.5,43.0,31.5,34.9,29.8,24.3,86,64,24,30.16,30.05,10,1,10,0.00
2013-3-2,54.3,38.8,29.5,31.0,24.8,20.7,86,60,27,30.24,30.10,8,2,8,0.00
2013-3-3,72.0,50.6,26.2,34.3,26.7,21.4,88,46,16,30.22,30.02,8,2,8,0.00
2013-3-4,79.7,63.5,45.3,57.5,50.7,35.7,88,65,42,30.00,29.74,20,5,20,0.00
2013-3-5,72.9,62.4,46.8,60.2,41.2,-35.8,87,49,22,30.21,29.75,97,4,97,0.00
2013-3-6,70.7,52.9,33.8,33.4,25.6,20.1,68,39,15,30.33,30.19,8,2,8,0.00
2013-3-7,72.3,52.7,31.8,38.8,32.4,24.4,88,53,17,30.29,30.16,6,1,6,0.00
2013-3-8,79.9,59.0,34.7,47.8,42.1,31.2,93,58,28,30.23,30.04,8,1,8,0.00
2013-3-9,77.2,63.5,51.6,59.5,54.3,44.0,85,72,53,30.05,29.83,17,3,17,0.00
2013-3-10,71.1,60.0,54.3,61.7,55.7,50.8,94,86,65,29.89,29.74,16,2,16,0.11
2013-3-11,66.2,51.5,38.3,40.4,33.3,28.6,86,53,28,30.01,29.89,14,3,14,0.00
2013-3-12,77.0,54.3,31.5,41.1,31.2,21.5,95,51,15,30.19,30.00,7,2,7,0.00
2013-3-13,68.7,49.5,37.2,38.5,33.1,25.5,89,61,21,30.39,30.20,8,2,8,0.00
2013-3-14,80.8,56.0,34.5,41.0,33.6,26.8,87,50,16,30.38,30.21,8,1,8,0.00
2013-3-15,86.7,68.0,45.5,54.3,47.6,41.0,87,53,25,30.22,30.01,14,3,14,0.00
2013-3-16,87.1,70.5,54.9,57.3,54.4,51.7,95,61,33,30.00,29.82,15,3,15,0.00
2013-3-17,77.4,61.8,55.9,63.7,57.7,54.3,96,87,62,29.86,29.81,7,1,7,0.00
2013-3-18,92.7,77.9,65.7,66.0,64.0,62.6,91,66,41,29.77,29.67,12,3,12,0.00
2013-3-19,83.8,66.3,48.6,49.2,41.2,34.0,84,44,21,30.00,29.89,6,2,6,0.00
2013-3-20,79.7,61.6,47.1,47.7,38.0,21.7,95,48,15,30.16,29.99,9,2,9,0.08
2013-3-21,74.8,54.9,39.7,43.2,36.5,32.0,84,54,23,30.00,29.73,10,2,10,0.00
2013-3-22,88.0,68.9,56.7,65.8,58.8,43.7,86,71,46,29.76,29.62,8,2,8,0.00
2013-3-23,75.4,66.6,59.7,65.6,60.0,54.9,92,80,64,29.75,29.53,6,1,6,0.00
2013-3-24,64.4,55.3,41.2,53.9,37.5,27.1,91,55,26,30.04,29.58,14,4,14,0.00
2013-3-25,66.7,46.4,33.6,30.4,23.6,15.9,72,45,17,30.27,30.04,8,2,8,0.00
2013-3-26,64.6,45.6,28.0,28.9,23.0,17.1,78,45,19,30.40,30.26,10,2,10,0.00
2013-3-27,77.4,53.8,29.1,36.9,28.7,21.6,86,45,15,30.38,30.17,8,1,8,0.00
2013-3-28,81.9,57.1,39.2,44.1,36.5,28.5,86,54,15,30.29,30.15,8,1,8,0.00
2013-3-29,83.7,68.0,51.4,55.6,51.5,40.2,96,60,25,30.22,30.09,14,2,14,0.00
2013-3-30,84.6,65.1,55.2,64.0,56.8,53.6,96,76,45,30.12,29.92,8,2,8,0.12
2013-3-31,75.4,62.3,54.1,64.0,59.0,53.3,97,90,67,29.99,29.79,16,2,16,0.48